Pagrindinis puslapis
METAR-TAF:

METAR-TAF

Oro uostai :

King Cove, Aliaska, Jungtinės Amerikos Valstijos

platuma: 55-06-59N, ilguma: 162-15-58W, Aukštis: 47 m

Dabartinis oras

Ataskaita buvo paskelbta 21 minutes, ne 09:18 UTC
Ramus vėjas
Temperatūra -2°C
Drėgmė 100%
Slėgis 998 hPa
Matomumas: 8.0 km
Su prošvaistėmis ne aukštis 600 ft
Apsiniaukę ne aukštis 1300 ft
nežinomas, rūkana

METAR: PAVC 260918Z AUTO 00000KT 5SM UP BR BKN006 OVC013 M02/M02 A2946 RMK AO2 P0000 FZRANO

Laikas: 00:39 (09:39 UTC)


TAF: trūkstamas

Orai ataskaitas ir orų prognozės (METAR, TAF).

turimą stotys yra geltonos ir raudonos taškus žemėlapyje.

Perkelti pele per norėdami pamatyti stoties vardą.

Tada spustelėkite, norėdami matyti oro stebėjimo ir prognozės.

Norėdami pakeisti žemėlapį: spustelėkite ant žalios mygtukų su juodo kryžiaus žemyn,; žalią mygtuką su brūkšneliu, jei norite nutolinti; arba žalių rodyklių gretimoms žemėlapius.


METAR-TAF: